Time;durP1;ratioP1;P1;durP2;ratioP2;P2;SDS_P1;SDS_P2;PMS_P1;PMS_P2;Temp;Humidity;BMP_temperature;BMP_pressure;BME280_temperature;BME280_humidity;BME280_pressure;Samples;Min_cycle;Max_cycle;Signal;HPM_P1;HPM_P2
2023/05/13 00:01:37;;;;;;;11.40;7.70;;;;;;;14.24;40.80;101066.47;5055277;28;20332;-63
2023/05/13 00:04:08;;;;;;;9.53;6.93;;;;;;;14.28;40.62;101073.31;5056875;28;20205;-66
2023/05/13 00:06:36;;;;;;;13.50;7.33;;;;;;;14.30;40.84;101078.50;5055129;28;20652;-62
2023/05/13 00:09:04;;;;;;;11.57;7.70;;;;;;;14.31;40.87;101073.31;5058605;28;20280;-65
2023/05/13 00:11:32;;;;;;;11.30;7.83;;;;;;;14.28;40.95;101073.31;5058943;28;20204;-62
2023/05/13 00:14:00;;;;;;;14.90;7.43;;;;;;;14.27;41.07;101071.63;5054562;28;20202;-63
2023/05/13 00:16:28;;;;;;;9.23;7.50;;;;;;;14.17;40.71;101070.84;5053915;28;20251;-63
2023/05/13 00:18:56;;;;;;;12.02;7.45;;;;;;;14.16;41.08;101073.47;5058112;28;20209;-63
2023/05/13 00:21:25;;;;;;;10.50;7.18;;;;;;;14.14;41.40;101065.72;5053982;28;20266;-64
2023/05/13 00:23:53;;;;;;;9.77;7.45;;;;;;;14.15;41.25;101069.16;5053128;28;20328;-62
2023/05/13 00:26:21;;;;;;;12.83;7.23;;;;;;;14.18;41.78;101071.72;5054712;28;20209;-64
2023/05/13 00:28:49;;;;;;;11.90;7.70;;;;;;;14.21;41.84;101061.28;5055893;28;20299;-64
2023/05/13 00:31:17;;;;;;;11.70;6.93;;;;;;;14.23;41.63;101060.41;5056488;28;20225;-63
2023/05/13 00:33:45;;;;;;;11.40;6.93;;;;;;;14.24;41.55;101072.50;5060402;28;20199;-63
2023/05/13 00:36:13;;;;;;;9.83;7.03;;;;;;;14.23;41.30;101069.94;5059011;28;20288;-63
2023/05/13 00:38:45;;;;;;;9.27;6.53;;;;;;;14.23;41.00;101073.38;5056114;28;20369;-63
2023/05/13 00:41:20;;;;;;;11.50;6.43;;;;;;;14.26;41.26;101072.50;5052775;28;20290;-63
2023/05/13 00:43:48;;;;;;;10.20;6.43;;;;;;;14.26;40.97;101069.91;5056645;28;20266;-66
2023/05/13 00:46:16;;;;;;;8.63;6.50;;;;;;;14.24;41.00;101071.63;5055834;28;20201;-63
2023/05/13 00:48:44;;;;;;;10.00;6.65;;;;;;;14.22;41.13;101066.47;5056356;28;20208;-63
2023/05/13 00:51:12;;;;;;;12.27;6.35;;;;;;;14.20;41.25;101065.63;5056142;28;20288;-64
2023/05/13 00:53:40;;;;;;;11.83;6.37;;;;;;;14.19;40.81;101069.09;5053023;28;20652;-62
2023/05/13 00:56:09;;;;;;;11.93;7.00;;;;;;;14.19;40.95;101069.09;5057717;28;20215;-63
2023/05/13 00:58:37;;;;;;;8.90;6.97;;;;;;;14.17;41.47;101075.16;5055294;28;20243;-63
2023/05/13 01:01:20;;;;;;;11.98;6.38;;;;;;;14.15;41.62;101076.94;5056360;28;21523;-63
2023/05/13 01:04:08;;;;;;;12.77;6.85;;;;;;;14.16;41.03;101076.91;5054222;28;20240;-64
2023/05/13 01:06:43;;;;;;;8.37;6.30;;;;;;;14.18;41.65;101088.13;5056119;28;20684;-63
2023/05/13 01:09:21;;;;;;;8.00;6.30;;;;;;;14.21;41.42;101090.69;5052592;28;20241;-62
2023/05/13 01:11:54;;;;;;;12.25;7.25;;;;;;;14.23;41.93;101085.50;5055332;28;20221;-63
2023/05/13 01:14:29;;;;;;;11.90;7.03;;;;;;;14.25;41.93;101083.75;5056942;28;20330;-62
2023/05/13 01:17:02;;;;;;;10.87;7.10;;;;;;;14.27;41.35;101087.16;5047288;28;20232;-63
2023/05/13 01:19:38;;;;;;;13.95;6.95;;;;;;;14.26;41.66;101088.06;5050300;28;20233;-63
2023/05/13 01:22:08;;;;;;;13.40;7.35;;;;;;;14.24;41.84;101084.59;5055981;28;20699;-63
2023/05/13 01:24:36;;;;;;;11.30;6.83;;;;;;;14.27;41.86;101082.00;5054216;28;20810;-63
2023/05/13 01:27:04;;;;;;;12.68;7.88;;;;;;;14.23;41.47;101072.53;5056855;28;20205;-62
2023/05/13 01:29:32;;;;;;;10.77;7.60;;;;;;;14.22;41.76;101078.59;5055277;28;20217;-62
2023/05/13 01:32:01;;;;;;;9.55;7.03;;;;;;;14.19;41.93;101083.81;5055660;28;20217;-63
2023/05/13 01:34:30;;;;;;;10.03;7.07;;;;;;;14.12;42.24;101074.38;5057813;28;20602;-64
2023/05/13 01:36:59;;;;;;;10.50;8.20;;;;;;;14.07;42.22;101083.94;5054322;28;20305;-63
2023/05/13 01:39:30;;;;;;;10.73;6.73;;;;;;;13.97;42.86;101078.81;5058150;28;20227;-63
2023/05/13 01:41:58;;;;;;;13.40;7.40;;;;;;;13.91;42.92;101078.84;5055616;28;20329;-63
2023/05/13 01:44:26;;;;;;;10.93;8.05;;;;;;;13.85;43.67;101072.91;5055199;28;20229;-62
2023/05/13 01:46:54;;;;;;;12.40;8.37;;;;;;;13.83;43.53;101085.84;5054673;28;20292;-61
2023/05/13 01:49:22;;;;;;;14.05;7.95;;;;;;;13.77;43.97;101083.28;5055262;28;21156;-62
2023/05/13 01:51:50;;;;;;;13.53;8.13;;;;;;;13.73;44.30;101092.84;5054798;28;20205;-63
2023/05/13 01:54:18;;;;;;;11.90;8.23;;;;;;;13.67;44.30;101090.28;5056826;28;20209;-65
2023/05/13 01:56:47;;;;;;;13.17;8.17;;;;;;;13.62;44.45;101092.03;5060215;28;20205;-62
2023/05/13 01:59:15;;;;;;;11.90;8.60;;;;;;;13.59;44.46;101094.69;5057399;28;20251;-62
2023/05/13 02:01:44;;;;;;;11.02;8.32;;;;;;;13.58;44.76;101094.66;5062578;28;20723;-63
2023/05/13 02:04:12;;;;;;;11.45;8.18;;;;;;;13.52;44.86;101096.44;5058879;28;20208;-63
2023/05/13 02:06:40;;;;;;;12.80;8.87;;;;;;;13.49;44.93;101098.19;5057816;28;20198;-64
2023/05/13 02:09:08;;;;;;;14.97;8.70;;;;;;;13.48;45.53;101094.75;5054614;28;20205;-63
2023/05/13 02:11:36;;;;;;;16.30;8.30;;;;;;;13.47;45.75;101089.56;5058805;28;20679;-64
2023/05/13 02:14:05;;;;;;;10.43;8.37;;;;;;;13.46;46.38;101088.72;5059556;28;20209;-67
2023/05/13 02:16:33;;;;;;;14.27;8.17;;;;;;;13.50;45.86;101095.59;5058467;28;20198;-63
2023/05/13 02:19:01;;;;;;;14.60;9.30;;;;;;;13.52;46.33;101095.59;5059414;28;20241;-63
2023/05/13 02:21:29;;;;;;;13.97;8.97;;;;;;;13.58;46.56;101097.25;5057922;28;20205;-63
2023/05/13 02:23:57;;;;;;;12.17;8.60;;;;;;;13.61;46.68;101103.28;5059465;28;20261;-63
2023/05/13 02:26:25;;;;;;;11.97;9.30;;;;;;;13.65;46.64;101104.13;5058452;28;20610;-64
2023/05/13 02:28:53;;;;;;;15.43;9.03;;;;;;;13.65;46.96;101115.34;5057631;28;20643;-62
2023/05/13 02:31:22;;;;;;;12.55;8.82;;;;;;;13.67;46.72;101118.78;5056950;28;20617;-64
2023/05/13 02:33:50;;;;;;;13.25;8.30;;;;;;;13.66;46.82;101106.72;5057836;28;20247;-63
2023/05/13 02:36:18;;;;;;;10.57;8.63;;;;;;;13.67;46.94;101105.84;5055311;28;20243;-64
2023/05/13 02:38:45;;;;;;;15.97;8.83;;;;;;;13.65;46.80;101106.69;5062322;28;20583;-63
2023/05/13 02:41:13;;;;;;;12.00;9.40;;;;;;;13.61;46.76;101095.50;5057320;28;21375;-60
2023/05/13 02:43:41;;;;;;;13.53;8.23;;;;;;;13.61;46.96;101099.84;5055946;28;20217;-62
2023/05/13 02:46:09;;;;;;;13.57;9.10;;;;;;;13.64;47.36;101094.63;5059109;28;20618;-61
2023/05/13 02:48:38;;;;;;;15.13;9.32;;;;;;;13.70;47.26;101099.78;5060234;28;20198;-62
2023/05/13 02:51:06;;;;;;;11.77;8.27;;;;;;;13.69;46.28;101104.06;5055331;28;20205;-59
2023/05/13 02:53:34;;;;;;;10.15;8.07;;;;;;;13.68;46.11;101104.09;5056886;28;20194;-61
2023/05/13 02:56:02;;;;;;;15.00;8.83;;;;;;;13.69;46.40;101111.00;5057197;28;20296;-61
2023/05/13 02:58:30;;;;;;;11.60;8.50;;;;;;;13.69;46.18;101111.00;5059276;28;20601;-61
2023/05/13 03:00:58;;;;;;;10.95;8.10;;;;;;;13.67;46.57;101115.34;5056041;28;20213;-61
2023/05/13 03:03:26;;;;;;;12.75;9.27;;;;;;;13.71;46.91;101109.25;5066179;28;20224;-61
2023/05/13 03:05:55;;;;;;;11.77;8.90;;;;;;;13.78;47.21;101097.97;5069376;28;20200;-60
2023/05/13 03:08:23;;;;;;;14.30;8.60;;;;;;;13.83;47.62;101096.22;5066935;28;20657;-61
2023/05/13 03:10:51;;;;;;;14.07;8.75;;;;;;;13.84;47.69;101103.09;5070892;28;20216;-60
2023/05/13 03:13:19;;;;;;;15.87;8.73;;;;;;;13.83;47.90;101101.38;5067993;28;20553;-62
2023/05/13 03:15:47;;;;;;;11.60;9.00;;;;;;;13.79;47.34;101115.25;5070123;28;20645;-61
2023/05/13 03:18:14;;;;;;;19.23;10.10;;;;;;;13.73;47.32;101123.94;5063824;28;20201;-60
2023/05/13 03:20:42;;;;;;;14.02;9.15;;;;;;;13.67;48.00;101117.94;5071237;28;20205;-60
2023/05/13 03:23:12;;;;;;;14.20;9.87;;;;;;;13.64;48.12;101100.66;5072258;28;20682;-60
2023/05/13 03:25:40;;;;;;;15.40;9.68;;;;;;;13.72;47.97;101087.66;5072509;28;20986;-61
2023/05/13 03:28:08;;;;;;;16.77;9.75;;;;;;;13.86;49.02;101087.56;5069574;28;20205;-61
2023/05/13 03:30:36;;;;;;;12.27;9.50;;;;;;;13.98;49.17;101096.06;5067548;28;20221;-62
2023/05/13 03:33:04;;;;;;;14.10;10.30;;;;;;;14.05;48.73;101090.84;5068028;28;20197;-60
2023/05/13 03:35:32;;;;;;;16.77;9.20;;;;;;;14.12;48.70;101100.28;5070769;28;20238;-62
2023/05/13 03:38:00;;;;;;;13.20;9.23;;;;;;;14.10;48.22;101096.84;5063242;28;20670;-62
2023/05/13 03:40:29;;;;;;;13.70;9.27;;;;;;;14.10;48.93;101099.41;5058779;28;20209;-63
2023/05/13 03:42:57;;;;;;;12.80;9.57;;;;;;;14.09;48.33;101102.91;5056640;28;22300;-60
2023/05/13 03:45:25;;;;;;;13.50;9.60;;;;;;;14.14;49.22;101111.47;5058146;28;20258;-64
2023/05/13 03:47:53;;;;;;;12.33;9.13;;;;;;;14.14;48.82;101111.47;5055065;28;20314;-62
2023/05/13 03:50:21;;;;;;;13.30;9.40;;;;;;;14.12;49.12;101108.06;5056060;28;20656;-60
2023/05/13 03:52:49;;;;;;;11.57;9.45;;;;;;;14.12;49.44;101111.50;5053833;28;20316;-61
2023/05/13 03:55:17;;;;;;;14.20;9.60;;;;;;;14.12;49.03;101108.06;5058236;28;20248;-62
2023/05/13 03:57:48;;;;;;;14.83;9.70;;;;;;;14.10;49.55;101109.78;5054910;28;20197;-60
2023/05/13 04:00:16;;;;;;;15.10;9.37;;;;;;;14.09;49.12;101113.25;5054795;28;20247;-60
2023/05/13 04:02:44;;;;;;;13.73;10.20;;;;;;;14.07;49.61;101115.88;5060668;28;20251;-60
2023/05/13 04:05:12;;;;;;;20.08;10.25;;;;;;;14.06;49.08;101119.31;5057968;28;20198;-62
2023/05/13 04:07:41;;;;;;;14.50;10.47;;;;;;;14.01;49.77;101121.97;5055537;28;20201;-61
2023/05/13 04:10:10;;;;;;;13.40;9.20;;;;;;;13.97;50.19;101116.81;5054825;28;20732;-61
2023/05/13 04:12:41;;;;;;;16.23;10.18;;;;;;;14.00;50.44;101120.25;5057821;28;20205;-60
2023/05/13 04:15:11;;;;;;;16.90;9.93;;;;;;;14.04;49.90;101117.63;5058545;28;20209;-64
2023/05/13 04:17:39;;;;;;;14.70;9.40;;;;;;;14.10;49.86;101125.34;5056639;28;20256;-60
2023/05/13 04:20:08;;;;;;;15.80;10.80;;;;;;;14.11;50.22;101122.75;5053486;28;20715;-61
2023/05/13 04:22:36;;;;;;;12.90;9.93;;;;;;;14.27;50.04;101123.47;5056995;28;20637;-61
2023/05/13 04:25:05;;;;;;;16.33;10.15;;;;;;;14.45;49.50;101123.28;5053070;28;20731;-61
2023/05/13 04:27:32;;;;;;;18.70;11.18;;;;;;;14.63;49.03;101121.41;5055228;28;20232;-60
2023/05/13 04:30:00;;;;;;;14.80;10.07;;;;;;;14.81;47.97;101122.94;5058918;28;20201;-63
2023/05/13 04:32:30;;;;;;;18.63;10.63;;;;;;;14.97;47.66;101127.91;5057937;28;20774;-64
2023/05/13 04:34:58;;;;;;;14.48;10.63;;;;;;;15.15;47.29;101125.97;5053965;28;20213;-63
2023/05/13 04:37:26;;;;;;;15.70;10.47;;;;;;;15.39;47.06;101120.47;5056465;28;20502;-64
2023/05/13 04:39:54;;;;;;;13.07;10.40;;;;;;;15.63;45.35;101131.34;5053946;28;20255;-64
2023/05/13 04:42:22;;;;;;;16.90;10.93;;;;;;;15.88;45.30;101124.94;5057167;28;20197;-65
2023/05/13 04:44:50;;;;;;;14.30;10.80;;;;;;;16.09;44.43;101138.44;5053229;28;20290;-65
2023/05/13 04:47:18;;;;;;;14.55;10.77;;;;;;;16.10;43.53;101133.22;5054750;28;20255;-63
2023/05/13 04:49:48;;;;;;;15.35;9.93;;;;;;;16.00;42.40;101144.66;5052840;28;20606;-63
2023/05/13 04:52:16;;;;;;;16.67;11.70;;;;;;;15.85;43.47;101134.53;5058702;28;20624;-64
2023/05/13 04:54:44;;;;;;;15.65;10.57;;;;;;;15.78;43.56;101145.88;5054525;28;20246;-64
2023/05/13 04:57:12;;;;;;;16.85;11.18;;;;;;;15.71;43.88;101152.91;5056212;28;20270;-63
2023/05/13 04:59:40;;;;;;;14.13;11.30;;;;;;;15.62;43.74;101146.09;5056223;28;21207;-64
2023/05/13 05:02:07;;;;;;;19.25;11.23;;;;;;;15.69;43.99;101159.88;5057228;28;20205;-64
2023/05/13 05:04:35;;;;;;;12.88;9.70;;;;;;;16.17;43.41;101154.78;5051803;28;20209;-65
2023/05/13 05:07:05;;;;;;;16.45;10.23;;;;;;;16.96;41.86;101147.28;5056511;28;20205;-63
2023/05/13 05:09:33;;;;;;;13.38;9.48;;;;;;;18.06;40.23;101146.56;5058404;28;20270;-64
2023/05/13 05:12:01;;;;;;;12.32;9.20;;;;;;;19.53;36.77;101132.03;5055032;28;20338;-66
2023/05/13 05:14:29;;;;;;;12.10;8.77;;;;;;;20.58;34.59;101132.91;5053310;28;20290;-64
2023/05/13 05:16:57;;;;;;;17.25;9.40;;;;;;;21.26;32.20;101128.66;5047741;28;20232;-65
2023/05/13 05:19:25;;;;;;;10.75;8.00;;;;;;;21.88;31.05;101132.34;5060017;28;20675;-64
2023/05/13 05:21:53;;;;;;;12.85;8.27;;;;;;;22.32;29.50;101124.41;5052537;28;20627;-66
2023/05/13 05:24:22;;;;;;;10.20;7.30;;;;;;;22.03;29.23;101115.13;5056294;28;20229;-62
2023/05/13 05:26:50;;;;;;;16.05;7.50;;;;;;;22.72;29.07;101118.25;5051952;28;20300;-60
2023/05/13 05:29:18;;;;;;;9.75;7.93;;;;;;;23.07;27.85;101119.28;5062581;28;20656;-61
2023/05/13 05:31:46;;;;;;;11.00;7.53;;;;;;;23.17;28.01;101129.38;5062346;28;20286;-60
2023/05/13 05:34:14;;;;;;;15.70;8.25;;;;;;;23.63;27.85;101133.28;5068447;28;20689;-64
2023/05/13 05:36:42;;;;;;;9.85;7.47;;;;;;;25.08;25.95;101126.78;5068949;28;20209;-65
2023/05/13 05:39:10;;;;;;;9.27;7.43;;;;;;;26.89;23.47;101123.22;5064531;28;20651;-64
2023/05/13 05:41:39;;;;;;;8.48;6.93;;;;;;;28.29;21.56;101122.88;5071175;28;20705;-66
2023/05/13 05:44:07;;;;;;;9.75;7.57;;;;;;;29.10;20.03;101124.34;5072178;28;20221;-64
2023/05/13 05:46:35;;;;;;;10.88;7.43;;;;;;;29.23;19.77;101129.59;5056589;28;20362;-64
2023/05/13 05:49:03;;;;;;;10.05;7.57;;;;;;;29.87;20.04;101132.00;5065818;28;20255;-64
2023/05/13 05:51:31;;;;;;;10.13;7.35;;;;;;;30.70;18.95;101127.28;5070276;28;20668;-64
2023/05/13 05:53:59;;;;;;;10.80;7.20;;;;;;;31.44;17.88;101110.75;5069317;28;20547;-63
2023/05/13 05:56:27;;;;;;;10.77;7.40;;;;;;;30.60;18.32;101118.38;5066516;28;20251;-64
2023/05/13 05:58:56;;;;;;;9.85;7.32;;;;;;;29.75;19.62;101118.69;5070703;28;20698;-65
2023/05/13 06:01:24;;;;;;;11.88;7.40;;;;;;;30.60;19.50;101115.72;5065188;28;20197;-66
2023/05/13 06:03:52;;;;;;;9.90;6.70;;;;;;;32.16;17.43;101107.41;5066917;28;20224;-63
2023/05/13 06:06:21;;;;;;;10.07;6.82;;;;;;;34.00;15.48;101107.88;5064681;28;20209;-65
2023/05/13 06:08:49;;;;;;;9.48;6.55;;;;;;;35.41;14.45;101107.63;5068967;28;20721;-63
2023/05/13 06:11:17;;;;;;;8.85;6.40;;;;;;;36.65;13.09;101108.38;5058359;28;20611;-64
2023/05/13 06:13:45;;;;;;;9.18;5.95;;;;;;;37.74;12.20;101104.72;5064725;28;20205;-64
2023/05/13 06:16:14;;;;;;;6.22;5.63;;;;;;;38.64;10.91;101093.78;5066180;28;20672;-64
2023/05/13 06:18:42;;;;;;;7.15;5.30;;;;;;;39.23;11.30;101099.50;5064834;28;20232;-64
2023/05/13 06:21:10;;;;;;;7.28;5.40;;;;;;;39.23;10.63;101098.69;5069361;28;20377;-64
2023/05/13 06:23:38;;;;;;;8.93;5.88;;;;;;;38.72;10.70;101106.38;5071710;28;20712;-65
2023/05/13 06:26:06;;;;;;;7.57;5.68;;;;;;;38.43;10.80;101102.44;5066150;28;20616;-62
2023/05/13 06:28:34;;;;;;;7.35;5.75;;;;;;;38.61;10.84;101110.28;5057192;28;20201;-65
2023/05/13 06:31:02;;;;;;;7.18;5.18;;;;;;;38.68;10.75;101119.34;5067452;28;20209;-64
2023/05/13 06:33:31;;;;;;;9.38;5.85;;;;;;;38.27;11.40;101116.78;5065312;28;20212;-63
2023/05/13 06:35:59;;;;;;;8.73;5.10;;;;;;;38.18;11.03;101124.03;5068523;28;20216;-64
2023/05/13 06:38:27;;;;;;;10.63;5.75;;;;;;;38.71;10.33;101118.16;5061841;28;20213;-65
2023/05/13 06:40:55;;;;;;;7.95;5.22;;;;;;;38.91;10.33;101116.72;5062504;28;20255;-62
2023/05/13 06:43:23;;;;;;;8.85;5.68;;;;;;;39.43;10.27;101116.06;5062967;28;20635;-62
2023/05/13 06:45:50;;;;;;;11.32;6.13;;;;;;;40.21;9.93;101114.91;5061597;28;20292;-64
2023/05/13 06:48:18;;;;;;;6.70;5.30;;;;;;;40.30;9.34;101110.22;5061526;28;20922;-64
2023/05/13 06:50:48;;;;;;;6.25;5.25;;;;;;;40.40;9.68;101113.50;5070550;28;20201;-65
2023/05/13 06:53:16;;;;;;;6.35;5.00;;;;;;;40.66;9.70;101112.19;5064643;28;20663;-64
2023/05/13 06:55:44;;;;;;;7.82;5.32;;;;;;;40.66;9.24;101109.47;5063131;28;20545;-64
2023/05/13 06:58:12;;;;;;;5.88;4.88;;;;;;;40.84;9.38;101114.44;5057858;28;20201;-64
2023/05/13 07:00:40;;;;;;;6.05;4.60;;;;;;;40.32;9.03;101114.44;5061875;28;20196;-64
2023/05/13 07:03:08;;;;;;;5.53;4.50;;;;;;;40.38;9.60;101110.13;5054300;28;20554;-64
2023/05/13 07:05:36;;;;;;;7.78;4.55;;;;;;;40.48;9.08;101110.69;5060798;28;20705;-64
2023/05/13 07:08:07;;;;;;;7.38;4.15;;;;;;;40.35;9.16;101112.38;5068890;28;20201;-64
2023/05/13 07:10:35;;;;;;;7.78;4.13;;;;;;;39.95;8.94;101109.06;5065683;28;20205;-64
2023/05/13 07:13:04;;;;;;;6.55;4.55;;;;;;;40.18;8.92;101104.47;5071074;28;20699;-63
2023/05/13 07:15:32;;;;;;;6.63;4.45;;;;;;;41.01;8.60;101111.34;5069937;28;20252;-65
2023/05/13 07:17:59;;;;;;;9.55;4.60;;;;;;;40.94;8.45;101106.88;5064408;28;20208;-64
2023/05/13 07:20:27;;;;;;;6.35;4.22;;;;;;;40.68;8.47;101108.25;5065120;28;20236;-64
2023/05/13 07:22:55;;;;;;;6.43;3.92;;;;;;;41.21;8.54;101110.75;5065817;28;20354;-63
2023/05/13 07:25:25;;;;;;;5.28;3.83;;;;;;;42.03;8.11;101110.22;5058615;28;20209;-64
2023/05/13 07:27:52;;;;;;;6.70;4.07;;;;;;;42.47;7.80;101107.16;5060522;28;20223;-62
2023/05/13 07:30:21;;;;;;;5.82;3.60;;;;;;;43.41;7.42;101100.09;5066335;28;20208;-64
2023/05/13 07:32:49;;;;;;;7.38;4.07;;;;;;;43.78;6.98;101103.25;5068551;28;20308;-63
2023/05/13 07:35:20;;;;;;;5.38;4.20;;;;;;;43.42;7.19;101105.34;5062957;28;20239;-68
2023/05/13 07:37:49;;;;;;;6.32;4.25;;;;;;;42.93;7.53;101111.06;5063173;28;20197;-64
2023/05/13 07:40:17;;;;;;;9.65;3.97;;;;;;;42.68;7.50;101105.41;5069569;28;20204;-63
2023/05/13 07:42:46;;;;;;;6.38;4.32;;;;;;;42.61;7.85;101102.63;5062516;28;20212;-63
2023/05/13 07:45:14;;;;;;;7.72;3.88;;;;;;;42.43;7.68;101105.03;5068888;28;20197;-65
2023/05/13 07:47:42;;;;;;;5.18;3.63;;;;;;;42.68;7.47;101103.50;5069970;28;20739;-64
2023/05/13 07:50:12;;;;;;;8.30;4.32;;;;;;;42.97;7.89;101101.47;5071419;28;20247;-67
2023/05/13 07:52:40;;;;;;;6.13;3.60;;;;;;;43.23;7.58;101089.88;5072205;28;20282;-61
2023/05/13 07:55:09;;;;;;;7.32;3.83;;;;;;;42.62;7.66;101098.88;5070060;28;20215;-61
2023/05/13 07:57:37;;;;;;;7.78;4.10;;;;;;;41.33;8.18;101102.94;5071016;28;20284;-62
2023/05/13 08:00:08;;;;;;;5.40;3.30;;;;;;;40.94;7.89;101094.19;5065783;28;20205;-68
2023/05/13 08:02:37;;;;;;;5.40;3.72;;;;;;;40.20;8.34;101090.75;5062893;28;20204;-61
2023/05/13 08:05:06;;;;;;;7.22;3.78;;;;;;;39.37;9.11;101097.94;5063156;28;20196;-62
2023/05/13 08:07:34;;;;;;;6.03;4.22;;;;;;;38.26;10.04;101096.25;5071746;28;20205;-59
2023/05/13 08:10:02;;;;;;;7.22;3.45;;;;;;;37.04;10.57;101099.78;5070879;28;20201;-62
2023/05/13 08:12:30;;;;;;;4.57;3.50;;;;;;;35.67;11.51;101094.31;5070530;28;20201;-60
2023/05/13 08:14:58;;;;;;;5.05;3.50;;;;;;;33.82;12.90;101099.69;5063512;28;20240;-60
2023/05/13 08:17:27;;;;;;;7.78;3.75;;;;;;;32.12;14.91;101090.81;5065773;28;20689;-61
2023/05/13 08:19:55;;;;;;;4.57;3.55;;;;;;;30.92;15.75;101091.88;5069526;28;20197;-62
2023/05/13 08:22:23;;;;;;;3.55;3.25;;;;;;;29.53;15.17;101097.28;5069423;28;20232;-64
2023/05/13 08:24:51;;;;;;;3.35;2.30;;;;;;;28.21;16.15;101101.38;5063090;28;20267;-64
2023/05/13 08:27:20;;;;;;;6.70;2.90;;;;;;;27.03;17.75;101097.66;5063013;28;20208;-64
2023/05/13 08:29:48;;;;;;;2.88;2.50;;;;;;;26.55;18.19;101095.38;5053581;28;20209;-63
2023/05/13 08:32:16;;;;;;;4.32;2.60;;;;;;;26.34;18.04;101094.84;5066446;28;20572;-64
2023/05/13 08:34:45;;;;;;;4.88;2.65;;;;;;;26.30;17.96;101098.63;5067677;28;20205;-65
2023/05/13 08:37:13;;;;;;;3.72;2.40;;;;;;;26.16;18.99;101099.47;5065323;28;20197;-64
2023/05/13 08:39:41;;;;;;;3.33;2.30;;;;;;;26.08;18.35;101095.59;5064605;28;20212;-65
2023/05/13 08:42:11;;;;;;;2.88;2.20;;;;;;;26.02;17.85;101100.28;5067624;28;20250;-65
2023/05/13 08:44:42;;;;;;;1.80;1.70;;;;;;;25.73;18.10;101101.94;5064943;28;20227;-64
2023/05/13 08:47:17;;;;;;;3.33;2.20;;;;;;;25.28;18.85;101100.16;5058457;28;20205;-68
2023/05/13 08:49:47;;;;;;;3.00;2.10;;;;;;;25.09;19.39;101095.03;5059351;28;21063;-65
2023/05/13 08:52:15;;;;;;;4.10;2.20;;;;;;;24.94;19.01;101088.81;5063823;28;20201;-63
2023/05/13 08:54:43;;;;;;;2.50;2.30;;;;;;;24.86;19.16;101085.75;5066939;28;20547;-64
2023/05/13 08:57:11;;;;;;;7.13;2.20;;;;;;;24.78;19.03;101086.19;5064020;28;20690;-63
2023/05/13 08:59:39;;;;;;;3.65;2.08;;;;;;;24.75;18.79;101086.34;5060899;28;20206;-63
2023/05/13 09:02:08;;;;;;;3.28;1.98;;;;;;;24.69;19.39;101085.81;5065100;28;20251;-64
2023/05/13 09:04:40;;;;;;;2.63;1.98;;;;;;;24.70;18.67;101085.72;5069024;28;20235;-65
2023/05/13 09:07:10;;;;;;;3.72;2.08;;;;;;;24.59;18.74;101078.38;5070374;28;20201;-68
2023/05/13 09:09:38;;;;;;;2.95;1.73;;;;;;;24.36;19.07;101081.38;5068771;28;20198;-64
2023/05/13 09:12:06;;;;;;;5.97;1.80;;;;;;;24.33;19.03;101078.88;5070647;28;20228;-64
2023/05/13 09:14:34;;;;;;;3.58;1.80;;;;;;;24.44;17.95;101081.84;5069558;28;20201;-65
2023/05/13 09:17:02;;;;;;;3.28;1.60;;;;;;;24.55;17.31;101074.22;5070677;28;20252;-64
2023/05/13 09:19:30;;;;;;;3.08;1.50;;;;;;;24.57;17.85;101077.63;5067175;28;20579;-64
2023/05/13 09:21:59;;;;;;;5.15;1.90;;;;;;;24.79;17.79;101071.22;5069569;28;20236;-66
2023/05/13 09:24:28;;;;;;;2.83;1.73;;;;;;;25.36;17.67;101070.69;5068903;28;20390;-65
2023/05/13 09:26:56;;;;;;;3.22;1.48;;;;;;;26.26;16.27;101065.41;5070433;28;20193;-65
2023/05/13 09:29:27;;;;;;;5.82;1.90;;;;;;;26.91;15.73;101060.47;5068603;28;20205;-64
2023/05/13 09:31:57;;;;;;;3.53;1.70;;;;;;;27.41;16.30;101074.91;5070587;28;20197;-63
2023/05/13 09:34:27;;;;;;;3.05;1.60;;;;;;;28.61;15.51;101051.75;5070404;28;20228;-61
2023/05/13 09:36:57;;;;;;;1.80;1.58;;;;;;;30.08;14.17;101039.97;5066272;28;20232;-60
2023/05/13 09:39:25;;;;;;;1.75;1.50;;;;;;;30.70;12.85;101047.47;5069864;28;20610;-61
2023/05/13 09:41:55;;;;;;;2.63;1.70;;;;;;;31.20;12.89;101050.53;5068493;28;20206;-60
2023/05/13 09:44:23;;;;;;;1.60;1.50;;;;;;;31.49;11.79;101044.66;5071118;28;20201;-60
2023/05/13 09:46:53;;;;;;;2.95;1.70;;;;;;;32.16;11.54;101049.56;5070698;28;20576;-61
2023/05/13 09:49:23;;;;;;;3.88;1.45;;;;;;;31.45;12.06;101032.56;5069806;28;20230;-63
2023/05/13 09:51:51;;;;;;;1.55;1.45;;;;;;;30.53;13.02;101034.69;5070491;28;20263;-64
2023/05/13 09:54:19;;;;;;;2.08;1.67;;;;;;;30.78;12.33;101033.59;5068698;28;20197;-61
2023/05/13 09:56:47;;;;;;;1.63;1.52;;;;;;;31.91;11.32;101031.34;5070177;28;20225;-62
2023/05/13 09:59:16;;;;;;;1.88;1.75;;;;;;;33.43;10.52;101024.00;5068411;28;20205;-61
2023/05/13 10:01:46;;;;;;;1.83;1.45;;;;;;;35.12;9.87;101026.63;5070367;28;20209;-61
2023/05/13 10:04:15;;;;;;;3.45;1.33;;;;;;;36.25;8.95;101023.94;5070576;28;20225;-60
2023/05/13 10:06:43;;;;;;;2.67;1.50;;;;;;;36.95;8.13;101025.53;5069240;28;20233;-61
2023/05/13 10:09:11;;;;;;;3.08;1.70;;;;;;;35.99;9.00;101021.31;5069164;28;20209;-61
2023/05/13 10:11:43;;;;;;;2.00;1.80;;;;;;;36.16;8.70;101022.22;5064939;28;20232;-62
2023/05/13 10:14:11;;;;;;;1.65;1.52;;;;;;;35.32;9.44;101020.13;5073151;28;20208;-60
2023/05/13 10:16:41;;;;;;;1.48;1.38;;;;;;;35.54;9.69;101005.41;5066720;28;20225;-62
2023/05/13 10:19:10;;;;;;;1.70;1.60;;;;;;;36.75;9.98;101009.72;5066930;28;20193;-61
2023/05/13 10:21:39;;;;;;;2.65;1.42;;;;;;;38.04;8.28;101000.09;5072588;28;20272;-61
2023/05/13 10:24:07;;;;;;;3.83;1.70;;;;;;;38.31;8.48;101007.72;5073555;28;20602;-64
2023/05/13 10:26:35;;;;;;;3.40;1.75;;;;;;;38.19;8.28;101006.44;5066129;28;20252;-62
2023/05/13 10:29:04;;;;;;;1.63;1.50;;;;;;;37.26;8.64;101004.22;5072474;28;20205;-62
2023/05/13 10:31:32;;;;;;;3.65;1.63;;;;;;;36.19;8.93;101007.63;5068379;28;20589;-62
2023/05/13 10:34:01;;;;;;;2.40;1.63;;;;;;;35.53;9.84;101001.91;5071260;28;20247;-64
2023/05/13 10:36:49;;;;;;;4.78;2.10;;;;;;;32.49;11.81;101012.94;5072998;28;20229;-61
2023/05/13 10:39:54;;;;;;;3.88;1.90;;;;;;;30.74;13.02;101011.69;5071632;28;20245;-61
2023/05/13 10:42:37;;;;;;;2.95;1.80;;;;;;;31.97;12.61;101012.16;5052317;28;20205;-61
2023/05/13 10:45:07;;;;;;;2.47;1.70;;;;;;;31.80;13.48;101002.91;5072889;28;20225;-61
2023/05/13 10:47:36;;;;;;;2.30;2.00;;;;;;;33.00;12.49;101003.94;5073322;28;20983;-60
2023/05/13 10:50:22;;;;;;;2.63;1.80;;;;;;;33.21;12.67;101006.44;5069040;28;20747;-61
2023/05/13 10:52:51;;;;;;;2.80;1.60;;;;;;;33.85;11.15;101007.66;5062075;28;20605;-61
2023/05/13 10:55:20;;;;;;;2.10;1.90;;;;;;;33.99;11.34;100998.38;5072080;28;20212;-61
2023/05/13 10:58:16;;;;;;;3.72;1.58;;;;;;;32.59;10.93;100994.31;5072693;28;20291;-61
2023/05/13 11:00:45;;;;;;;3.00;1.83;;;;;;;29.84;13.63;101000.22;5070069;28;20255;-60
2023/05/13 11:03:15;;;;;;;3.35;1.90;;;;;;;28.81;15.30;101007.84;5071923;28;20259;-61
2023/05/13 11:05:59;;;;;;;1.88;1.50;;;;;;;29.65;14.29;100999.94;5072591;28;20288;-61
2023/05/13 11:08:46;;;;;;;2.42;1.75;;;;;;;29.61;13.86;101007.28;5065108;28;20276;-62
2023/05/13 11:11:33;;;;;;;1.42;1.33;;;;;;;29.07;14.45;100997.16;5072419;28;20251;-60
2023/05/13 11:14:13;;;;;;;2.80;1.77;;;;;;;28.25;14.92;101002.13;5069071;28;20683;-65
2023/05/13 11:16:46;;;;;;;2.47;1.98;;;;;;;27.23;15.72;101007.31;5072775;28;20217;-65
2023/05/13 11:19:23;;;;;;;2.55;1.80;;;;;;;26.32;16.57;101014.81;5070868;28;20270;-65
2023/05/13 11:21:56;;;;;;;2.53;1.88;;;;;;;25.56;17.69;101019.44;5071259;28;20197;-66
2023/05/13 11:24:25;;;;;;;1.80;1.40;;;;;;;24.70;18.23;101016.34;5064059;28;20317;-65
2023/05/13 11:26:55;;;;;;;1.92;1.70;;;;;;;23.99;19.09;101022.72;5070151;28;20252;-65
2023/05/13 11:29:33;;;;;;;3.22;1.92;;;;;;;23.73;19.87;101024.06;5072415;28;20392;-66
2023/05/13 11:32:02;;;;;;;4.28;1.90;;;;;;;23.72;19.96;101029.41;5070156;28;20201;-66